sensor_id;sensor_type;location;lat;lon;timestamp;temperature;humidity
10263;DHT22;5177;50.068;8.156;2023-09-18T00:00:52;21.00;1.00
10263;DHT22;5177;50.068;8.156;2023-09-18T00:03:19;21.00;99.90
10263;DHT22;5177;50.068;8.156;2023-09-18T00:05:48;21.00;99.90
10263;DHT22;5177;50.068;8.156;2023-09-18T00:11:01;21.00;99.90
10263;DHT22;5177;50.068;8.156;2023-09-18T00:13:27;21.00;99.90
10263;DHT22;5177;50.068;8.156;2023-09-18T00:15:54;21.00;1.00
10263;DHT22;5177;50.068;8.156;2023-09-18T00:18:19;20.90;1.00
10263;DHT22;5177;50.068;8.156;2023-09-18T00:20:45;20.80;1.00
10263;DHT22;5177;50.068;8.156;2023-09-18T00:23:13;20.80;99.90
10263;DHT22;5177;50.068;8.156;2023-09-18T00:25:39;20.90;99.90
10263;DHT22;5177;50.068;8.156;2023-09-18T00:28:07;20.90;99.90
10263;DHT22;5177;50.068;8.156;2023-09-18T00:30:33;20.80;3.50
10263;DHT22;5177;50.068;8.156;2023-09-18T00:32:58;20.80;99.90
10263;DHT22;5177;50.068;8.156;2023-09-18T00:35:24;20.80;42.50
10263;DHT22;5177;50.068;8.156;2023-09-18T00:37:49;20.80;97.60
10263;DHT22;5177;50.068;8.156;2023-09-18T00:40:15;20.80;99.90
10263;DHT22;5177;50.068;8.156;2023-09-18T00:42:40;20.70;1.00
10263;DHT22;5177;50.068;8.156;2023-09-18T00:45:06;20.70;92.50
10263;DHT22;5177;50.068;8.156;2023-09-18T00:47:31;20.70;27.40
10263;DHT22;5177;50.068;8.156;2023-09-18T00:49:57;20.70;1.00
10263;DHT22;5177;50.068;8.156;2023-09-18T00:52:23;20.70;1.00
10263;DHT22;5177;50.068;8.156;2023-09-18T00:54:49;20.80;99.90
10263;DHT22;5177;50.068;8.156;2023-09-18T00:57:15;20.70;1.00
10263;DHT22;5177;50.068;8.156;2023-09-18T00:59:40;20.70;1.00
10263;DHT22;5177;50.068;8.156;2023-09-18T01:02:06;20.80;1.00
10263;DHT22;5177;50.068;8.156;2023-09-18T01:04:32;20.80;99.90
10263;DHT22;5177;50.068;8.156;2023-09-18T01:07:01;20.70;1.00
10263;DHT22;5177;50.068;8.156;2023-09-18T01:09:29;20.70;99.90
10263;DHT22;5177;50.068;8.156;2023-09-18T01:12:04;20.70;1.00
10263;DHT22;5177;50.068;8.156;2023-09-18T01:14:40;20.60;1.00
10263;DHT22;5177;50.068;8.156;2023-09-18T01:17:06;20.60;1.00
10263;DHT22;5177;50.068;8.156;2023-09-18T01:22:05;20.60;99.90
10263;DHT22;5177;50.068;8.156;2023-09-18T01:24:32;20.60;99.90
10263;DHT22;5177;50.068;8.156;2023-09-18T01:26:57;20.70;1.00
10263;DHT22;5177;50.068;8.156;2023-09-18T01:29:23;20.70;99.90
10263;DHT22;5177;50.068;8.156;2023-09-18T01:31:48;20.60;99.90
10263;DHT22;5177;50.068;8.156;2023-09-18T01:34:16;20.60;99.90
10263;DHT22;5177;50.068;8.156;2023-09-18T01:36:43;20.70;1.00
10263;DHT22;5177;50.068;8.156;2023-09-18T01:39:10;20.70;99.90
10263;DHT22;5177;50.068;8.156;2023-09-18T01:41:36;20.70;99.90
10263;DHT22;5177;50.068;8.156;2023-09-18T01:44:02;20.70;99.90
10263;DHT22;5177;50.068;8.156;2023-09-18T01:46:30;20.70;1.00
10263;DHT22;5177;50.068;8.156;2023-09-18T01:48:58;20.80;1.00
10263;DHT22;5177;50.068;8.156;2023-09-18T01:51:24;20.80;99.90
10263;DHT22;5177;50.068;8.156;2023-09-18T01:53:50;20.80;1.00
10263;DHT22;5177;50.068;8.156;2023-09-18T01:56:16;20.80;1.00
10263;DHT22;5177;50.068;8.156;2023-09-18T01:58:41;20.90;99.90
10263;DHT22;5177;50.068;8.156;2023-09-18T02:01:07;21.00;99.90
10263;DHT22;5177;50.068;8.156;2023-09-18T02:03:32;21.00;1.00
10263;DHT22;5177;50.068;8.156;2023-09-18T02:05:58;21.00;1.00
10263;DHT22;5177;50.068;8.156;2023-09-18T02:08:23;20.90;90.60
10263;DHT22;5177;50.068;8.156;2023-09-18T02:10:49;20.80;1.00
10263;DHT22;5177;50.068;8.156;2023-09-18T02:13:14;20.80;99.90
10263;DHT22;5177;50.068;8.156;2023-09-18T02:15:39;20.80;1.00
10263;DHT22;5177;50.068;8.156;2023-09-18T02:18:05;20.70;3.10
10263;DHT22;5177;50.068;8.156;2023-09-18T02:20:30;20.60;99.90
10263;DHT22;5177;50.068;8.156;2023-09-18T02:22:56;20.60;99.90
10263;DHT22;5177;50.068;8.156;2023-09-18T02:25:21;20.50;99.90
10263;DHT22;5177;50.068;8.156;2023-09-18T02:27:47;20.50;99.90
10263;DHT22;5177;50.068;8.156;2023-09-18T02:30:12;20.50;99.90
10263;DHT22;5177;50.068;8.156;2023-09-18T02:32:38;20.40;99.90
10263;DHT22;5177;50.068;8.156;2023-09-18T02:35:04;20.40;99.90
10263;DHT22;5177;50.068;8.156;2023-09-18T02:37:32;20.30;99.90
10263;DHT22;5177;50.068;8.156;2023-09-18T02:39:57;20.30;99.90
10263;DHT22;5177;50.068;8.156;2023-09-18T02:42:23;20.30;99.90
10263;DHT22;5177;50.068;8.156;2023-09-18T02:44:49;20.20;99.90
10263;DHT22;5177;50.068;8.156;2023-09-18T02:47:14;20.20;99.90
10263;DHT22;5177;50.068;8.156;2023-09-18T02:49:39;20.10;99.90
10263;DHT22;5177;50.068;8.156;2023-09-18T02:52:05;20.10;99.90
10263;DHT22;5177;50.068;8.156;2023-09-18T02:54:31;20.00;99.90
10263;DHT22;5177;50.068;8.156;2023-09-18T02:56:56;19.90;99.90
10263;DHT22;5177;50.068;8.156;2023-09-18T02:59:21;19.90;99.90
10263;DHT22;5177;50.068;8.156;2023-09-18T03:01:47;19.90;99.90
10263;DHT22;5177;50.068;8.156;2023-09-18T03:04:12;19.80;99.90
10263;DHT22;5177;50.068;8.156;2023-09-18T03:06:38;19.80;99.90
10263;DHT22;5177;50.068;8.156;2023-09-18T03:09:05;19.80;99.90
10263;DHT22;5177;50.068;8.156;2023-09-18T03:11:30;19.80;99.90
10263;DHT22;5177;50.068;8.156;2023-09-18T03:13:56;19.80;99.90
10263;DHT22;5177;50.068;8.156;2023-09-18T03:16:21;19.80;99.90
10263;DHT22;5177;50.068;8.156;2023-09-18T03:18:47;19.70;99.90
10263;DHT22;5177;50.068;8.156;2023-09-18T03:21:12;19.70;99.90
10263;DHT22;5177;50.068;8.156;2023-09-18T03:23:38;19.70;99.90
10263;DHT22;5177;50.068;8.156;2023-09-18T03:26:03;19.70;99.90
10263;DHT22;5177;50.068;8.156;2023-09-18T03:28:29;19.70;99.90
10263;DHT22;5177;50.068;8.156;2023-09-18T03:30:54;19.70;99.90
10263;DHT22;5177;50.068;8.156;2023-09-18T03:33:20;19.70;99.90
10263;DHT22;5177;50.068;8.156;2023-09-18T03:35:46;19.80;99.90
10263;DHT22;5177;50.068;8.156;2023-09-18T03:38:12;19.90;99.90
10263;DHT22;5177;50.068;8.156;2023-09-18T03:40:38;19.80;99.90
10263;DHT22;5177;50.068;8.156;2023-09-18T03:43:03;19.70;99.90
10263;DHT22;5177;50.068;8.156;2023-09-18T03:45:29;19.80;99.90
10263;DHT22;5177;50.068;8.156;2023-09-18T03:47:54;19.80;99.90
10263;DHT22;5177;50.068;8.156;2023-09-18T03:50:20;19.80;99.90
10263;DHT22;5177;50.068;8.156;2023-09-18T03:52:45;19.80;99.90
10263;DHT22;5177;50.068;8.156;2023-09-18T03:55:11;19.80;99.90
10263;DHT22;5177;50.068;8.156;2023-09-18T03:57:39;19.80;99.90
10263;DHT22;5177;50.068;8.156;2023-09-18T04:00:04;19.60;99.90
10263;DHT22;5177;50.068;8.156;2023-09-18T04:02:30;19.70;99.90
10263;DHT22;5177;50.068;8.156;2023-09-18T04:04:56;19.60;99.90
10263;DHT22;5177;50.068;8.156;2023-09-18T04:07:21;19.60;99.90
10263;DHT22;5177;50.068;8.156;2023-09-18T04:09:47;19.50;99.90
10263;DHT22;5177;50.068;8.156;2023-09-18T04:12:12;19.50;99.90
10263;DHT22;5177;50.068;8.156;2023-09-18T04:14:38;19.50;99.90
10263;DHT22;5177;50.068;8.156;2023-09-18T04:17:04;19.60;99.90
10263;DHT22;5177;50.068;8.156;2023-09-18T04:19:29;19.70;99.90
10263;DHT22;5177;50.068;8.156;2023-09-18T04:21:55;19.80;99.90
10263;DHT22;5177;50.068;8.156;2023-09-18T04:24:21;19.80;99.90
10263;DHT22;5177;50.068;8.156;2023-09-18T04:26:48;19.80;99.90
10263;DHT22;5177;50.068;8.156;2023-09-18T04:29:16;19.90;99.90
10263;DHT22;5177;50.068;8.156;2023-09-18T04:31:41;19.90;27.70
10263;DHT22;5177;50.068;8.156;2023-09-18T04:34:07;20.00;38.50
10263;DHT22;5177;50.068;8.156;2023-09-18T04:36:32;20.10;1.00
10263;DHT22;5177;50.068;8.156;2023-09-18T04:38:58;20.00;11.20
10263;DHT22;5177;50.068;8.156;2023-09-18T04:41:23;20.00;99.90
10263;DHT22;5177;50.068;8.156;2023-09-18T04:43:49;19.90;99.90
10263;DHT22;5177;50.068;8.156;2023-09-18T04:46:16;19.90;99.90
10263;DHT22;5177;50.068;8.156;2023-09-18T04:48:41;20.10;75.00
10263;DHT22;5177;50.068;8.156;2023-09-18T04:51:07;20.00;99.90
10263;DHT22;5177;50.068;8.156;2023-09-18T04:53:32;20.00;99.90
10263;DHT22;5177;50.068;8.156;2023-09-18T04:55:58;20.00;99.90
10263;DHT22;5177;50.068;8.156;2023-09-18T04:58:23;19.90;99.90
10263;DHT22;5177;50.068;8.156;2023-09-18T05:00:56;19.90;99.90
10263;DHT22;5177;50.068;8.156;2023-09-18T05:03:21;19.90;99.90
10263;DHT22;5177;50.068;8.156;2023-09-18T05:05:47;19.90;99.90
10263;DHT22;5177;50.068;8.156;2023-09-18T05:08:12;19.90;99.90
10263;DHT22;5177;50.068;8.156;2023-09-18T05:10:38;19.90;99.90
10263;DHT22;5177;50.068;8.156;2023-09-18T05:13:03;19.80;99.90
10263;DHT22;5177;50.068;8.156;2023-09-18T05:15:29;19.80;99.90
10263;DHT22;5177;50.068;8.156;2023-09-18T05:17:55;19.70;99.90
10263;DHT22;5177;50.068;8.156;2023-09-18T05:20:23;19.80;99.90
10263;DHT22;5177;50.068;8.156;2023-09-18T05:22:50;19.80;99.90
10263;DHT22;5177;50.068;8.156;2023-09-18T05:25:15;19.70;99.90
10263;DHT22;5177;50.068;8.156;2023-09-18T05:27:41;19.70;99.90
10263;DHT22;5177;50.068;8.156;2023-09-18T05:30:11;19.70;99.90
10263;DHT22;5177;50.068;8.156;2023-09-18T05:32:37;19.70;99.90
10263;DHT22;5177;50.068;8.156;2023-09-18T05:35:02;19.80;99.90
10263;DHT22;5177;50.068;8.156;2023-09-18T05:37:31;19.80;99.90
10263;DHT22;5177;50.068;8.156;2023-09-18T05:39:57;19.80;99.90
10263;DHT22;5177;50.068;8.156;2023-09-18T05:42:22;19.90;99.90
10263;DHT22;5177;50.068;8.156;2023-09-18T05:44:48;19.90;99.90
10263;DHT22;5177;50.068;8.156;2023-09-18T05:47:13;19.90;99.90
10263;DHT22;5177;50.068;8.156;2023-09-18T05:49:39;20.00;99.90
10263;DHT22;5177;50.068;8.156;2023-09-18T05:52:04;20.00;1.00
10263;DHT22;5177;50.068;8.156;2023-09-18T05:54:30;20.10;1.00
10263;DHT22;5177;50.068;8.156;2023-09-18T05:56:55;20.10;1.00
10263;DHT22;5177;50.068;8.156;2023-09-18T05:59:21;20.00;1.00
10263;DHT22;5177;50.068;8.156;2023-09-18T06:01:46;20.10;1.00
10263;DHT22;5177;50.068;8.156;2023-09-18T06:04:13;20.10;1.00
10263;DHT22;5177;50.068;8.156;2023-09-18T06:06:39;20.10;1.00
10263;DHT22;5177;50.068;8.156;2023-09-18T06:09:04;20.10;1.00
10263;DHT22;5177;50.068;8.156;2023-09-18T06:11:30;20.10;1.00
10263;DHT22;5177;50.068;8.156;2023-09-18T06:13:55;20.20;1.00
10263;DHT22;5177;50.068;8.156;2023-09-18T06:16:21;20.20;1.00
10263;DHT22;5177;50.068;8.156;2023-09-18T06:18:46;20.20;1.00
10263;DHT22;5177;50.068;8.156;2023-09-18T06:21:12;20.20;1.00
10263;DHT22;5177;50.068;8.156;2023-09-18T06:23:37;20.20;1.00
10263;DHT22;5177;50.068;8.156;2023-09-18T06:26:03;20.20;1.00
10263;DHT22;5177;50.068;8.156;2023-09-18T06:28:29;20.30;1.00
10263;DHT22;5177;50.068;8.156;2023-09-18T06:30:55;20.20;1.00
10263;DHT22;5177;50.068;8.156;2023-09-18T06:33:21;20.30;1.00
10263;DHT22;5177;50.068;8.156;2023-09-18T06:35:47;20.30;1.00
10263;DHT22;5177;50.068;8.156;2023-09-18T06:38:13;20.30;1.00
10263;DHT22;5177;50.068;8.156;2023-09-18T06:40:40;20.30;1.00
10263;DHT22;5177;50.068;8.156;2023-09-18T06:43:06;20.50;3.30
10263;DHT22;5177;50.068;8.156;2023-09-18T06:45:31;20.50;99.90
10263;DHT22;5177;50.068;8.156;2023-09-18T06:47:58;20.60;99.90
10263;DHT22;5177;50.068;8.156;2023-09-18T06:50:25;20.70;99.90
10263;DHT22;5177;50.068;8.156;2023-09-18T06:52:51;20.60;99.90
10263;DHT22;5177;50.068;8.156;2023-09-18T06:55:16;20.60;99.90
10263;DHT22;5177;50.068;8.156;2023-09-18T06:57:42;20.60;99.90
10263;DHT22;5177;50.068;8.156;2023-09-18T07:00:08;20.60;99.90
10263;DHT22;5177;50.068;8.156;2023-09-18T07:02:33;20.70;95.60
10263;DHT22;5177;50.068;8.156;2023-09-18T07:04:59;20.60;34.70
10263;DHT22;5177;50.068;8.156;2023-09-18T07:07:24;20.70;1.00
10263;DHT22;5177;50.068;8.156;2023-09-18T07:09:53;20.70;1.00
10263;DHT22;5177;50.068;8.156;2023-09-18T07:12:19;20.70;1.00
10263;DHT22;5177;50.068;8.156;2023-09-18T07:14:45;20.60;1.00
10263;DHT22;5177;50.068;8.156;2023-09-18T07:17:11;20.70;31.40
10263;DHT22;5177;50.068;8.156;2023-09-18T07:19:36;20.70;1.00
10263;DHT22;5177;50.068;8.156;2023-09-18T07:22:02;20.70;1.00
10263;DHT22;5177;50.068;8.156;2023-09-18T07:24:27;20.70;13.80
10263;DHT22;5177;50.068;8.156;2023-09-18T07:26:53;20.70;1.00
10263;DHT22;5177;50.068;8.156;2023-09-18T07:29:20;20.80;1.00
10263;DHT22;5177;50.068;8.156;2023-09-18T07:31:45;20.80;1.00
10263;DHT22;5177;50.068;8.156;2023-09-18T07:34:13;20.80;1.00
10263;DHT22;5177;50.068;8.156;2023-09-18T07:36:39;20.90;30.70
10263;DHT22;5177;50.068;8.156;2023-09-18T07:39:05;20.90;1.00
10263;DHT22;5177;50.068;8.156;2023-09-18T07:41:31;20.90;1.00
10263;DHT22;5177;50.068;8.156;2023-09-18T07:43:56;21.00;1.00
10263;DHT22;5177;50.068;8.156;2023-09-18T07:46:23;21.10;99.90
10263;DHT22;5177;50.068;8.156;2023-09-18T07:48:49;21.10;1.00
10263;DHT22;5177;50.068;8.156;2023-09-18T07:51:14;21.10;99.90
10263;DHT22;5177;50.068;8.156;2023-09-18T07:53:41;21.20;1.00
10263;DHT22;5177;50.068;8.156;2023-09-18T07:56:07;21.20;1.00
10263;DHT22;5177;50.068;8.156;2023-09-18T07:58:34;21.20;99.90
10263;DHT22;5177;50.068;8.156;2023-09-18T08:01:03;21.30;1.00
10263;DHT22;5177;50.068;8.156;2023-09-18T08:03:34;21.40;1.00
10263;DHT22;5177;50.068;8.156;2023-09-18T08:06:00;21.40;1.00
10263;DHT22;5177;50.068;8.156;2023-09-18T08:08:25;21.50;1.00
10263;DHT22;5177;50.068;8.156;2023-09-18T08:10:51;21.50;1.00
10263;DHT22;5177;50.068;8.156;2023-09-18T08:13:17;21.60;1.00
10263;DHT22;5177;50.068;8.156;2023-09-18T08:15:43;21.60;1.00
10263;DHT22;5177;50.068;8.156;2023-09-18T08:18:09;21.70;99.90
10263;DHT22;5177;50.068;8.156;2023-09-18T08:20:39;21.70;1.00
10263;DHT22;5177;50.068;8.156;2023-09-18T08:23:05;21.80;99.90
10263;DHT22;5177;50.068;8.156;2023-09-18T08:25:31;21.80;1.00
10263;DHT22;5177;50.068;8.156;2023-09-18T08:27:56;21.90;99.90
10263;DHT22;5177;50.068;8.156;2023-09-18T08:30:22;21.90;99.90
10263;DHT22;5177;50.068;8.156;2023-09-18T08:32:47;21.90;1.00
10263;DHT22;5177;50.068;8.156;2023-09-18T08:35:13;21.90;1.00
10263;DHT22;5177;50.068;8.156;2023-09-18T08:37:42;22.00;16.70
10263;DHT22;5177;50.068;8.156;2023-09-18T08:40:09;21.90;1.00
10263;DHT22;5177;50.068;8.156;2023-09-18T08:42:35;21.90;1.00
10263;DHT22;5177;50.068;8.156;2023-09-18T08:45:02;21.90;1.00
10263;DHT22;5177;50.068;8.156;2023-09-18T08:47:30;21.90;99.90
10263;DHT22;5177;50.068;8.156;2023-09-18T08:49:56;21.90;1.00
10263;DHT22;5177;50.068;8.156;2023-09-18T08:52:24;21.90;99.90
10263;DHT22;5177;50.068;8.156;2023-09-18T08:54:50;21.90;99.90
10263;DHT22;5177;50.068;8.156;2023-09-18T08:57:16;21.80;99.90
10263;DHT22;5177;50.068;8.156;2023-09-18T08:59:41;21.80;99.90
10263;DHT22;5177;50.068;8.156;2023-09-18T09:02:08;21.80;1.00
10263;DHT22;5177;50.068;8.156;2023-09-18T09:04:37;21.80;99.90
10263;DHT22;5177;50.068;8.156;2023-09-18T09:07:03;21.80;1.00
10263;DHT22;5177;50.068;8.156;2023-09-18T09:09:28;21.70;1.00
10263;DHT22;5177;50.068;8.156;2023-09-18T09:11:56;21.70;99.90
10263;DHT22;5177;50.068;8.156;2023-09-18T09:14:21;21.80;99.90
10263;DHT22;5177;50.068;8.156;2023-09-18T09:16:53;21.70;99.90
10263;DHT22;5177;50.068;8.156;2023-09-18T09:19:27;21.80;99.90
10263;DHT22;5177;50.068;8.156;2023-09-18T09:21:53;21.90;71.90
10263;DHT22;5177;50.068;8.156;2023-09-18T09:24:26;22.00;1.00
10263;DHT22;5177;50.068;8.156;2023-09-18T09:27:00;22.10;1.00
10263;DHT22;5177;50.068;8.156;2023-09-18T09:29:28;22.00;1.00
10263;DHT22;5177;50.068;8.156;2023-09-18T09:31:55;22.10;1.00
10263;DHT22;5177;50.068;8.156;2023-09-18T09:34:25;22.10;1.00
10263;DHT22;5177;50.068;8.156;2023-09-18T09:36:56;22.10;1.00
10263;DHT22;5177;50.068;8.156;2023-09-18T09:39:22;22.10;1.00
10263;DHT22;5177;50.068;8.156;2023-09-18T09:41:53;22.10;1.00
10263;DHT22;5177;50.068;8.156;2023-09-18T09:44:19;22.00;1.00
10263;DHT22;5177;50.068;8.156;2023-09-18T09:46:49;22.00;1.00
10263;DHT22;5177;50.068;8.156;2023-09-18T09:49:15;22.00;1.00
10263;DHT22;5177;50.068;8.156;2023-09-18T09:51:41;22.00;1.00
10263;DHT22;5177;50.068;8.156;2023-09-18T09:54:07;22.00;1.00
10263;DHT22;5177;50.068;8.156;2023-09-18T09:56:49;22.00;1.00
10263;DHT22;5177;50.068;8.156;2023-09-18T09:59:16;22.00;1.00
10263;DHT22;5177;50.068;8.156;2023-09-18T10:01:46;22.00;1.00
10263;DHT22;5177;50.068;8.156;2023-09-18T10:04:12;22.10;1.00
10263;DHT22;5177;50.068;8.156;2023-09-18T10:06:38;22.20;1.00
10263;DHT22;5177;50.068;8.156;2023-09-18T10:09:06;22.20;1.00
10263;DHT22;5177;50.068;8.156;2023-09-18T10:11:37;22.20;1.00
10263;DHT22;5177;50.068;8.156;2023-09-18T10:14:12;22.40;1.00
10263;DHT22;5177;50.068;8.156;2023-09-18T10:16:41;22.30;99.90
10263;DHT22;5177;50.068;8.156;2023-09-18T10:24:28;22.10;99.90
10263;DHT22;5177;50.068;8.156;2023-09-18T10:27:01;22.00;1.00
10263;DHT22;5177;50.068;8.156;2023-09-18T10:29:29;22.10;1.00
10263;DHT22;5177;50.068;8.156;2023-09-18T10:31:55;22.10;1.00
10263;DHT22;5177;50.068;8.156;2023-09-18T10:34:22;22.10;1.00
10263;DHT22;5177;50.068;8.156;2023-09-18T10:36:48;22.20;1.00
10263;DHT22;5177;50.068;8.156;2023-09-18T10:39:14;22.20;99.90
10263;DHT22;5177;50.068;8.156;2023-09-18T10:41:47;22.20;1.00
10263;DHT22;5177;50.068;8.156;2023-09-18T10:44:13;22.20;1.00
10263;DHT22;5177;50.068;8.156;2023-09-18T10:46:39;22.20;1.00
10263;DHT22;5177;50.068;8.156;2023-09-18T10:49:04;22.20;1.00
10263;DHT22;5177;50.068;8.156;2023-09-18T10:51:31;22.20;1.00
10263;DHT22;5177;50.068;8.156;2023-09-18T10:53:58;22.30;1.00
10263;DHT22;5177;50.068;8.156;2023-09-18T10:56:24;22.20;99.90
10263;DHT22;5177;50.068;8.156;2023-09-18T10:58:56;22.20;1.00
10263;DHT22;5177;50.068;8.156;2023-09-18T11:01:23;22.20;1.00
10263;DHT22;5177;50.068;8.156;2023-09-18T11:03:49;22.30;1.00
10263;DHT22;5177;50.068;8.156;2023-09-18T11:06:15;22.30;99.90
10263;DHT22;5177;50.068;8.156;2023-09-18T11:08:43;22.30;99.90
10263;DHT22;5177;50.068;8.156;2023-09-18T11:11:11;22.30;99.90
10263;DHT22;5177;50.068;8.156;2023-09-18T11:13:40;22.30;1.00
10263;DHT22;5177;50.068;8.156;2023-09-18T11:18:50;22.30;1.00
10263;DHT22;5177;50.068;8.156;2023-09-18T11:21:17;22.30;1.00
10263;DHT22;5177;50.068;8.156;2023-09-18T11:23:44;22.20;99.90
10263;DHT22;5177;50.068;8.156;2023-09-18T11:26:09;22.20;1.00
10263;DHT22;5177;50.068;8.156;2023-09-18T11:28:35;22.30;1.00
10263;DHT22;5177;50.068;8.156;2023-09-18T11:31:02;22.30;99.90
10263;DHT22;5177;50.068;8.156;2023-09-18T11:33:35;22.30;99.90
10263;DHT22;5177;50.068;8.156;2023-09-18T11:36:05;22.30;99.90
10263;DHT22;5177;50.068;8.156;2023-09-18T11:38:32;22.40;99.90
10263;DHT22;5177;50.068;8.156;2023-09-18T11:40:59;22.40;99.90
10263;DHT22;5177;50.068;8.156;2023-09-18T11:43:27;22.50;1.00
10263;DHT22;5177;50.068;8.156;2023-09-18T11:45:56;22.40;99.90
10263;DHT22;5177;50.068;8.156;2023-09-18T11:48:22;22.40;99.90
10263;DHT22;5177;50.068;8.156;2023-09-18T11:50:53;22.40;99.90
10263;DHT22;5177;50.068;8.156;2023-09-18T11:53:19;22.50;99.90
10263;DHT22;5177;50.068;8.156;2023-09-18T11:55:45;22.60;99.90
10263;DHT22;5177;50.068;8.156;2023-09-18T11:58:12;22.60;99.90
10263;DHT22;5177;50.068;8.156;2023-09-18T12:00:38;22.70;99.90
10263;DHT22;5177;50.068;8.156;2023-09-18T12:06:01;22.80;99.90
10263;DHT22;5177;50.068;8.156;2023-09-18T12:08:28;22.80;99.90
10263;DHT22;5177;50.068;8.156;2023-09-18T12:10:55;22.90;99.90
10263;DHT22;5177;50.068;8.156;2023-09-18T12:13:21;22.90;99.90
10263;DHT22;5177;50.068;8.156;2023-09-18T12:15:48;23.00;88.30
10263;DHT22;5177;50.068;8.156;2023-09-18T12:18:14;23.10;11.00
10263;DHT22;5177;50.068;8.156;2023-09-18T12:20:48;23.20;40.00
10263;DHT22;5177;50.068;8.156;2023-09-18T12:23:17;23.30;1.00
10263;DHT22;5177;50.068;8.156;2023-09-18T12:25:47;23.60;1.00
10263;DHT22;5177;50.068;8.156;2023-09-18T12:28:15;23.90;1.00
10263;DHT22;5177;50.068;8.156;2023-09-18T12:30:41;24.00;1.00
10263;DHT22;5177;50.068;8.156;2023-09-18T12:33:06;24.30;1.00
10263;DHT22;5177;50.068;8.156;2023-09-18T12:35:32;24.40;1.00
10263;DHT22;5177;50.068;8.156;2023-09-18T12:37:58;24.30;99.90
10263;DHT22;5177;50.068;8.156;2023-09-18T12:40:25;24.00;1.00
10263;DHT22;5177;50.068;8.156;2023-09-18T12:42:51;24.00;1.00
10263;DHT22;5177;50.068;8.156;2023-09-18T12:45:19;23.80;1.00
10263;DHT22;5177;50.068;8.156;2023-09-18T12:47:45;23.90;1.00
10263;DHT22;5177;50.068;8.156;2023-09-18T12:50:12;23.90;1.00
10263;DHT22;5177;50.068;8.156;2023-09-18T12:52:38;23.90;1.00
10263;DHT22;5177;50.068;8.156;2023-09-18T12:55:03;23.80;1.00
10263;DHT22;5177;50.068;8.156;2023-09-18T12:57:32;23.90;1.00
10263;DHT22;5177;50.068;8.156;2023-09-18T12:59:57;23.80;1.00
10263;DHT22;5177;50.068;8.156;2023-09-18T13:02:23;23.80;1.00
10263;DHT22;5177;50.068;8.156;2023-09-18T13:04:52;23.70;1.00
10263;DHT22;5177;50.068;8.156;2023-09-18T13:07:18;23.70;1.00
10263;DHT22;5177;50.068;8.156;2023-09-18T13:09:57;23.80;1.00
10263;DHT22;5177;50.068;8.156;2023-09-18T13:12:23;23.90;1.00
10263;DHT22;5177;50.068;8.156;2023-09-18T13:15:01;23.90;1.00
10263;DHT22;5177;50.068;8.156;2023-09-18T13:17:36;24.10;1.00
10263;DHT22;5177;50.068;8.156;2023-09-18T13:20:05;24.40;99.90
10263;DHT22;5177;50.068;8.156;2023-09-18T13:22:31;24.40;99.90
10263;DHT22;5177;50.068;8.156;2023-09-18T13:24:57;24.10;99.90
10263;DHT22;5177;50.068;8.156;2023-09-18T13:27:22;24.10;99.90
10263;DHT22;5177;50.068;8.156;2023-09-18T13:29:48;23.90;99.90
10263;DHT22;5177;50.068;8.156;2023-09-18T13:32:14;23.80;1.00
10263;DHT22;5177;50.068;8.156;2023-09-18T13:34:40;23.70;1.00
10263;DHT22;5177;50.068;8.156;2023-09-18T13:37:05;23.70;1.00
10263;DHT22;5177;50.068;8.156;2023-09-18T13:39:30;23.70;1.00
10263;DHT22;5177;50.068;8.156;2023-09-18T13:41:56;23.80;1.00
10263;DHT22;5177;50.068;8.156;2023-09-18T13:44:22;23.80;99.90
10263;DHT22;5177;50.068;8.156;2023-09-18T13:46:47;23.80;99.90
10263;DHT22;5177;50.068;8.156;2023-09-18T13:49:13;23.90;1.00
10263;DHT22;5177;50.068;8.156;2023-09-18T13:51:38;23.90;99.90
10263;DHT22;5177;50.068;8.156;2023-09-18T13:54:04;23.80;99.90
10263;DHT22;5177;50.068;8.156;2023-09-18T13:56:30;24.00;99.90
10263;DHT22;5177;50.068;8.156;2023-09-18T13:58:56;23.90;99.90
10263;DHT22;5177;50.068;8.156;2023-09-18T14:01:22;24.10;99.90
10263;DHT22;5177;50.068;8.156;2023-09-18T14:03:48;24.60;99.90
10263;DHT22;5177;50.068;8.156;2023-09-18T14:06:14;24.90;99.90
10263;DHT22;5177;50.068;8.156;2023-09-18T14:08:39;25.10;1.00
10263;DHT22;5177;50.068;8.156;2023-09-18T14:11:05;25.40;1.00
10263;DHT22;5177;50.068;8.156;2023-09-18T14:13:31;25.80;1.00
10263;DHT22;5177;50.068;8.156;2023-09-18T14:15:57;26.40;1.00
10263;DHT22;5177;50.068;8.156;2023-09-18T14:18:23;26.80;99.90
10263;DHT22;5177;50.068;8.156;2023-09-18T14:20:49;27.00;99.90
10263;DHT22;5177;50.068;8.156;2023-09-18T14:23:14;27.30;99.90
10263;DHT22;5177;50.068;8.156;2023-09-18T14:25:40;27.20;99.90
10263;DHT22;5177;50.068;8.156;2023-09-18T14:28:06;27.50;99.90
10263;DHT22;5177;50.068;8.156;2023-09-18T14:30:32;27.70;99.90
10263;DHT22;5177;50.068;8.156;2023-09-18T14:32:58;27.60;99.90
10263;DHT22;5177;50.068;8.156;2023-09-18T14:35:25;26.80;99.90
10263;DHT22;5177;50.068;8.156;2023-09-18T14:37:51;26.40;99.90
10263;DHT22;5177;50.068;8.156;2023-09-18T14:40:17;26.60;99.90
10263;DHT22;5177;50.068;8.156;2023-09-18T14:42:42;27.30;99.90
10263;DHT22;5177;50.068;8.156;2023-09-18T14:45:08;27.70;57.40
10263;DHT22;5177;50.068;8.156;2023-09-18T14:47:34;27.70;32.70
10263;DHT22;5177;50.068;8.156;2023-09-18T14:49:59;28.00;14.50
10263;DHT22;5177;50.068;8.156;2023-09-18T14:52:26;28.40;1.00
10263;DHT22;5177;50.068;8.156;2023-09-18T14:54:52;28.80;1.00
10263;DHT22;5177;50.068;8.156;2023-09-18T14:57:17;29.50;1.00
10263;DHT22;5177;50.068;8.156;2023-09-18T14:59:43;29.70;1.00
10263;DHT22;5177;50.068;8.156;2023-09-18T15:02:15;29.70;1.00
10263;DHT22;5177;50.068;8.156;2023-09-18T15:04:41;30.20;1.00
10263;DHT22;5177;50.068;8.156;2023-09-18T15:07:07;29.30;1.00
10263;DHT22;5177;50.068;8.156;2023-09-18T15:09:32;28.20;1.00
10263;DHT22;5177;50.068;8.156;2023-09-18T15:11:58;27.20;35.90
10263;DHT22;5177;50.068;8.156;2023-09-18T15:14:23;26.30;99.90
10263;DHT22;5177;50.068;8.156;2023-09-18T15:16:49;25.70;99.90
10263;DHT22;5177;50.068;8.156;2023-09-18T15:19:15;25.70;99.90
10263;DHT22;5177;50.068;8.156;2023-09-18T15:21:42;26.40;99.90
10263;DHT22;5177;50.068;8.156;2023-09-18T15:24:07;26.70;99.90
10263;DHT22;5177;50.068;8.156;2023-09-18T15:26:33;26.60;99.90
10263;DHT22;5177;50.068;8.156;2023-09-18T15:28:58;26.30;99.90
10263;DHT22;5177;50.068;8.156;2023-09-18T15:31:25;25.90;99.90
10263;DHT22;5177;50.068;8.156;2023-09-18T15:33:50;25.60;99.90
10263;DHT22;5177;50.068;8.156;2023-09-18T15:36:16;25.30;1.00
10263;DHT22;5177;50.068;8.156;2023-09-18T15:38:41;25.20;1.00
10263;DHT22;5177;50.068;8.156;2023-09-18T15:41:06;25.00;1.00
10263;DHT22;5177;50.068;8.156;2023-09-18T15:43:33;24.80;1.00
10263;DHT22;5177;50.068;8.156;2023-09-18T15:45:58;24.80;1.00
10263;DHT22;5177;50.068;8.156;2023-09-18T15:48:24;24.70;1.00
10263;DHT22;5177;50.068;8.156;2023-09-18T15:50:52;24.60;1.00
10263;DHT22;5177;50.068;8.156;2023-09-18T15:53:18;24.50;1.00
10263;DHT22;5177;50.068;8.156;2023-09-18T15:55:43;24.40;1.00
10263;DHT22;5177;50.068;8.156;2023-09-18T15:58:10;24.30;6.30
10263;DHT22;5177;50.068;8.156;2023-09-18T16:00:36;24.20;39.80
10263;DHT22;5177;50.068;8.156;2023-09-18T16:03:02;24.20;95.10